Station: Parndana

  Atmospheric Gas Attenuation - ITU Rec 676-11   --------------- db/100km ---------------
Date Time Temp RH % AH g/m3 Dew Point Wind Direction Speed kph Gust kph Barometer mB Rainfall Since 9am 24GHz 47GHz 76GHz 122GHz 134GHz 241GHz
21 17:50 12.1 77 8.26 8.2 30 41 1013.1 2 18.9 25.8 39.3 103.0 96.0 329.9
21 17:40 11.9 78 8.26 8.2 32 39 1013.1 2 19.0 25.9 39.4 103.3 96.3 330.7
21 17:30 11.8 80 8.42 8.5 32 50 1013.1 2 19.3 26.2 40.1 105.2 98.5 338.7
21 17:20 12.2 76 8.2 8.1 33 52 1013.1 2 18.8 25.7 39.0 102.2 95.1 326.7
21 17:10 12.3 75 8.14 8 35 41 1013.1 2 18.7 25.6 38.7 101.5 94.2 323.5
21 17:00 12.5 78 8.58 8.8 32 50 1013.1 2 19.6 26.2 40.4 106.0 99.8 343.2
21 16:50 12.3 82 8.9 9.3 24 28 1013.1 2 20.3 26.8 41.8 109.7 104.4 359.2
21 16:40 12.3 80 8.69 8.9 39 46 1013.1 2 19.9 26.5 40.9 107.4 101.5 349.2
21 16:30 12.3 84 9.12 9.7 30 44 1013.1 2 20.8 27.2 42.7 112.2 107.4 369.8
21 16:20 12 83 8.85 9.3 24 28 1013.1 2 20.2 26.8 41.7 109.6 104.1 358.2
21 16:10 12.4 82 8.96 9.4 30 35 1013.1 2 20.4 26.9 42.0 110.3 105.1 361.6
21 16:00 12.6 82 9.07 9.6 35 46 1013.1 2 20.7 27.0 42.3 111.2 106.3 365.9
21 15:50 12.1 87 9.33 10 32 43 1013.1 2 21.2 27.6 43.7 114.8 110.6 380.9
21 15:40 12.8 80 8.96 9.4 37 44 1013.1 1.8 20.4 26.8 41.8 109.7 104.5 359.8
21 15:30 12.4 83 9.07 9.6 39 54 1013.1 1.8 20.7 27.1 42.4 111.5 106.6 366.9
21 15:20 12.2 83 8.96 9.5 41 48 1013.1 1.8 20.4 27.0 42.1 110.6 105.3 362.6
21 15:10 12.5 83 9.13 9.7 48 56 1013.1 1.8 20.8 27.2 42.6 112.0 107.3 369.3
21 15:00 12.4 87 9.51 10.3 39 52 1013.1 1.8 21.6 27.8 44.3 116.4 112.6 388.1
21 14:50 11.8 83 8.74 9.1 52 63 1013.1 1.6 20.0 26.7 41.4 108.7 102.9 353.9
21 14:40 11.9 85 9 9.4 39 46 1013.1 1.6 20.5 27.1 42.4 111.4 106.3 365.9
21 14:30 13.4 74 8.6 8.9 43 59 1013.1 1.2 19.6 26.0 40.0 105.0 98.9 340.2
21 14:20 13.9 71 8.51 8.7 41 50 1013.1 1.2 19.4 25.7 39.4 103.3 97.1 333.9
21 14:10 14.6 67 8.38 8.7 44 50 1013.1 1.2 19.1 25.3 38.5 101.1 94.5 325.0
21 14:00 14.4 68 8.41 8.6 50 78 1013.1 1.2 19.2 25.4 38.7 101.6 95.2 327.2
21 13:50 14 68 8.2 8.2 48 65 1013.1 1.2 18.7 25.2 38.1 99.9 92.9 319.3
21 13:40 13.9 64 7.67 7.2 57 67 1013.1 1.2 17.6 24.4 36.1 94.5 86.2 295.8
21 13:30 13.8 63 7.51 6.9 54 72 1013.1 1.2 17.3 24.2 35.5 93.0 84.3 289.0
21 13:20 14.2 64 7.82 7.5 52 65 1013.1 1.2 17.9 24.5 36.5 95.7 87.8 301.4
21 13:10 14.4 67 8.28 8.5 35 44 1013.1 1.2 18.9 25.2 38.2 100.3 93.5 321.3
21 13:00 14.2 65 7.94 7.7 48 76 1013.1 1.2 18.2 24.7 37.0 97.0 89.3 306.7
21 12:50 13.9 61 7.31 6.5 59 67 1013.1 1.2 16.8 23.8 34.7 90.8 81.6 279.8
21 12:40 13.6 68 8 7.8 48 57 1013.1 1.2 18.3 25.0 37.5 98.3 90.8 311.8
21 12:30 13.9 65 7.79 7.4 52 67 1013.1 1.2 17.9 24.6 36.5 95.8 87.7 301.2
21 12:20 13.5 65 7.6 7 41 52 1013.1 1.2 17.5 24.4 36.0 94.3 85.7 294.2
21 12:10 14.5 67 8.33 8.4 44 59 1013.1 1.2 19.0 25.3 38.4 100.7 94.0 323.2
21 12:00 14.1 64 7.77 7.4 52 69 1013.1 1.2 17.8 24.5 36.4 95.3 87.3 299.5
21 11:50 14.3 63 7.74 7.3 54 61 1013.1 1.2 17.7 24.4 36.2 94.8 86.7 297.4
21 11:40 14 66 7.96 7.9 48 54 1013.1 1.2 18.2 24.8 37.2 97.4 89.8 308.4
21 11:30 13.8 69 8.22 8.2 52 70 1013.1 1.2 18.8 25.3 38.3 100.4 93.4 321.0
21 11:20 13.4 74 8.6 8.8 54 67 1013.1 1.2 19.6 26.0 40.0 105.0 98.9 340.2
21 11:10 12.8 85 9.52 10.3 48 61 1013.1 1.2 21.6 27.7 44.1 115.9 112.2 386.6
21 11:00 12.5 87 9.57 10.4 43 65 1013.1 1.2 21.7 27.9 44.5 117.0 113.3 390.6
21 10:50 12.2 87 9.39 10.2 43 57 1013.1 1 21.4 27.7 43.9 115.4 111.3 383.3
21 10:40 12.4 83 9.07 9.7 50 67 1013.1 0.6 20.7 27.1 42.4 111.5 106.6 366.9
21 10:30 12.5 85 9.35 10 46 67 1013.1 0.6 21.3 27.5 43.6 114.5 110.3 379.9
21 10:20 12.1 82 8.79 9.1 57 70 1013.1 0.6 20.1 26.7 41.4 108.8 103.2 354.9
21 10:10 11.9 82 8.69 8.9 43 52 1013.1 0.6 19.9 26.6 41.1 108.0 102.1 351.0
21 10:00 12.2 77 8.31 8.3 44 65 1013.1 0.4 19.0 25.9 39.4 103.4 96.5 331.8
21 09:50 12.1 76 8.15 8 48 59 1013.1 0.4 18.7 25.6 38.8 101.8 94.5 324.8
21 09:40 12.5 75 8.25 8.2 43 54 1013.1 0.4 18.9 25.7 39.0 102.4 95.4 327.7
21 09:30 11.3 78 7.96 7.6 44 72 1013.1 0.4 18.3 25.6 38.4 100.8 93.0 319.2
21 09:20 12.3 73 7.93 7.6 44 59 1013.1 0 18.2 25.2 37.8 99.2 91.4 313.8
21 09:10 12.5 75 8.25 8.2 35 46 1013.1 0 18.9 25.7 39.0 102.4 95.4 327.7
21 09:00 12.3 76 8.25 8.2 37 57 1013.1 0 18.9 25.8 39.1 102.6 95.6 328.6
21 08:50 11.5 81 8.37 8.3 33 43 1013.1 1.6 19.2 26.2 40.0 105.0 98.2 337.6
21 08:40 11.3 79 8.06 7.8 44 57 1013.1 1.4 18.6 25.7 38.8 101.9 94.3 323.9
21 08:30 12.3 72 7.82 7.4 43 65 1013.1 1.2 18.0 25.1 37.4 98.0 89.9 308.7
21 08:20 13 68 7.71 7.2 39 50 1013.1 1.2 17.7 24.7 36.6 96.0 87.7 301.0
21 08:10 12.6 70 7.74 7.4 41 52 1013.1 1.2 17.8 24.8 36.9 96.8 88.6 303.9
21 08:00 12.3 74 8.04 7.8 37 59 1013.1 1.2 18.5 25.4 38.3 100.4 92.8 318.8
21 07:50 12 75 7.99 7.7 37 48 1013.1 1.2 18.4 25.4 38.2 100.2 92.5 317.7
21 07:40 11.8 78 8.21 8.1 37 48 1013.1 1.2 18.9 25.8 39.2 102.9 95.7 328.8
21 07:30 11.6 77 8 7.7 33 48 1013.1 1.2 18.4 25.5 38.5 100.9 93.1 319.8
21 07:20 11.4 78 8.01 7.7 28 37 1013.1 1.2 18.4 25.6 38.6 101.2 93.5 321.1
21 07:10 11.3 78 7.96 7.6 32 43 1013.1 1.2 18.3 25.6 38.4 100.8 93.0 319.2
21 07:00 11.2 77 7.81 7.3 32 44 1013.1 1.2 18.0 25.4 37.9 99.3 91.1 312.6
21 06:50 11 78 7.81 7.3 30 39 1013.1 1.2 18.0 25.4 38.0 99.6 91.3 313.4
21 06:40 10.9 78 7.76 7.2 26 33 1013.1 1.2 17.9 25.4 37.8 99.2 90.8 311.4
21 06:30 10.8 78 7.71 7.1 26 35 1013.1 1.2 17.8 25.3 37.7 98.7 90.2 309.5
21 06:20 10.6 80 7.81 7.3 20 24 1013.1 1.2 18.0 25.5 38.2 100.1 91.8 315.0
21 06:10 10.7 80 7.86 7.4 22 28 1013.1 1.2 18.1 25.6 38.3 100.5 92.4 316.9
21 06:00 10.4 80 7.71 7.1 20 30 1013.1 1.2 17.8 25.4 37.9 99.2 90.7 311.1
21 05:50 10.7 78 7.66 7 19 20 1013.1 1.2 17.7 25.3 37.5 98.3 89.7 307.6
21 05:40 10.9 77 7.66 7 22 28 1013.1 1.2 17.7 25.2 37.4 98.1 89.5 306.8
21 05:30 10.9 77 7.66 7 22 35 1013.1 1.2 17.7 25.2 37.4 98.1 89.5 306.8
21 05:20 10.6 79 7.71 7.1 20 26 1013.1 1.2 17.8 25.4 37.8 99.0 90.5 310.3
21 05:10 10.8 78 7.71 7.1 20 28 1013.1 1.2 17.8 25.3 37.7 98.7 90.2 309.5
21 04:50 10.4 79 7.62 6.9 13 19 1013.1 1.2 17.6 25.3 37.5 98.3 89.5 306.9
21 04:40 10.7 78 7.66 7 17 20 1013.1 1.2 17.7 25.3 37.5 98.3 89.7 307.6
21 04:30 11 77 7.71 7.1 17 28 1013.1 1.2 17.8 25.2 37.6 98.5 90.0 308.7
21 04:20 10.6 75 7.32 6.3 15 17 1013.1 1.2 17.0 24.7 36.2 94.8 85.3 292.2
21 04:10 10.8 75 7.41 6.5 19 22 1013.1 1.2 17.2 24.8 36.5 95.5 86.3 295.6
21 04:00 11 75 7.51 6.7 22 32 1013.1 1.2 17.4 24.9 36.8 96.3 87.4 299.5
21 03:50 10.8 76 7.51 6.7 24 30 1013.1 1.2 17.4 25.0 36.9 96.6 87.6 300.2
21 03:40 10.7 78 7.66 7 22 26 1013.1 1.2 17.7 25.3 37.5 98.3 89.7 307.6
21 03:30 10.6 79 7.71 7.1 24 33 1013.1 1.2 17.8 25.4 37.8 99.0 90.5 310.3
21 03:20 10.2 80 7.61 6.9 22 28 1013.1 1.2 17.6 25.3 37.5 98.4 89.6 307.2
21 03:10 10.2 79 7.52 6.7 20 26 1013.1 1.2 17.4 25.2 37.2 97.4 88.4 303.0
21 03:00 10.2 78 7.42 6.5 22 35 1013.1 1.2 17.2 25.0 36.8 96.4 87.1 298.3
21 02:50 10.4 76 7.33 6.3 24 30 1013.1 1.2 17.0 24.8 36.3 95.1 85.7 293.4
21 02:40 10.3 79 7.57 6.8 24 33 1013.1 1.2 17.5 25.2 37.3 97.9 88.9 304.9
21 02:30 10 81 7.61 6.9 19 26 1013.1 1.2 17.6 25.4 37.6 98.7 89.8 308.0
21 02:20 9.7 81 7.47 6.6 19 20 1013.1 1.2 17.4 25.2 37.2 97.5 88.3 302.6
21 02:10 10 81 7.61 6.9 24 28 1013.1 1.2 17.6 25.4 37.6 98.7 89.8 308.0
21 02:00 9.9 84 7.85 7.3 24 33 1013.1 1.2 18.2 25.8 38.7 101.4 93.2 319.7
21 01:50 10.1 84 7.95 7.5 26 30 1013.1 1.2 18.4 25.9 39.0 102.3 94.3 323.6
21 01:40 10.7 77 7.56 6.8 24 30 1013.1 0.2 17.5 25.1 37.1 97.2 88.4 302.9
21 01:30 10.4 77 7.42 6.5 24 32 1013.1 0.2 17.2 24.9 36.7 96.1 86.8 297.6
21 01:20 10.2 78 7.42 6.5 24 28 1013.1 0.2 17.2 25.0 36.8 96.4 87.1 298.3
21 01:10 10.2 77 7.33 6.3 24 30 1013.1 0.2 17.0 24.9 36.4 95.4 85.9 294.2

Last Refresh: 21-Sep-2020 17:58:20

Most of the information presented on this site is sourced from the Bureau of Meteorology.  Copyright in all material sourced from the Bureau of Meteorology resides with the Commonwealth of Australia.